createdAt,value
2023-03-04T00:00:07.813Z,100.00
2023-03-04T00:05:33.813Z,100.00
2023-03-04T00:10:39.511Z,100.00
2023-03-04T00:15:45.091Z,100.00
2023-03-04T00:20:50.863Z,100.00
2023-03-04T00:25:55.176Z,100.00
2023-03-04T00:30:59.045Z,100.00
2023-03-04T00:36:03.716Z,100.00
2023-03-04T00:41:07.556Z,100.00
2023-03-04T00:46:11.229Z,100.00
2023-03-04T00:51:15.029Z,100.00
2023-03-04T00:56:19.415Z,100.00
2023-03-04T01:01:23.309Z,100.00
2023-03-04T01:06:29.010Z,100.00
2023-03-04T01:11:32.923Z,100.00
2023-03-04T01:16:36.941Z,100.00
2023-03-04T01:21:41.311Z,100.00
2023-03-04T01:26:45.153Z,100.00
2023-03-04T01:31:48.769Z,100.00
2023-03-04T01:36:52.497Z,100.00
2023-03-04T01:41:56.480Z,100.00
2023-03-04T01:47:01.511Z,100.00
2023-03-04T01:52:05.284Z,100.00
2023-03-04T01:57:26.672Z,100.00
2023-03-04T02:02:30.565Z,100.00
2023-03-04T02:07:34.504Z,100.00
2023-03-04T02:12:38.729Z,100.00
2023-03-04T02:17:42.724Z,100.00
2023-03-04T02:23:14.168Z,100.00
2023-03-04T02:28:17.912Z,100.00
2023-03-04T02:33:21.740Z,100.00
2023-03-04T02:38:25.667Z,100.00
2023-03-04T02:43:29.419Z,100.00
2023-03-04T02:48:33.500Z,100.00
2023-03-04T02:53:39.133Z,100.00
2023-03-04T02:58:43.338Z,100.00
2023-03-04T03:03:47.391Z,99.99
2023-03-04T03:08:51.273Z,99.76
2023-03-04T03:13:57.122Z,100.00
2023-03-04T03:19:01.810Z,99.45
2023-03-04T03:24:06.016Z,99.92
2023-03-04T03:29:09.750Z,99.21
2023-03-04T03:34:13.836Z,98.83
2023-03-04T03:39:18.636Z,99.69
2023-03-04T03:44:25.156Z,99.37
2023-03-04T03:49:28.869Z,99.85
2023-03-04T03:54:32.496Z,99.55
2023-03-04T03:59:36.427Z,99.54
2023-03-04T04:04:40.163Z,99.85
2023-03-04T04:09:44.973Z,99.77
2023-03-04T04:14:48.826Z,99.76
2023-03-04T04:19:52.527Z,99.67
2023-03-04T04:24:56.154Z,99.47
2023-03-04T04:30:00.195Z,99.65
2023-03-04T04:35:04.406Z,99.59
2023-03-04T04:40:08.915Z,99.67
2023-03-04T04:45:12.650Z,99.63
2023-03-04T04:50:16.642Z,99.72
2023-03-04T04:55:21.067Z,99.78
2023-03-04T05:00:25.221Z,98.83
2023-03-04T05:05:29.661Z,99.10
2023-03-04T05:10:34.406Z,98.02
2023-03-04T05:15:39.729Z,97.44
2023-03-04T05:20:43.688Z,98.32
2023-03-04T05:25:48.147Z,98.22
2023-03-04T05:30:51.897Z,97.84
2023-03-04T05:35:55.644Z,96.55
2023-03-04T05:41:04.732Z,97.11
2023-03-04T05:46:09.407Z,96.84
2023-03-04T05:51:13.326Z,96.47
2023-03-04T05:56:19.950Z,95.90
2023-03-04T06:01:24.100Z,95.30
2023-03-04T06:06:27.842Z,95.41
2023-03-04T06:11:31.675Z,95.18
2023-03-04T06:16:35.474Z,95.75
2023-03-04T06:21:39.321Z,95.23
2023-03-04T06:26:43.012Z,95.10
2023-03-04T06:31:46.829Z,94.19
2023-03-04T06:36:50.604Z,94.24
2023-03-04T06:41:54.283Z,94.00
2023-03-04T06:46:58.199Z,93.82
2023-03-04T06:52:02.653Z,93.86
2023-03-04T06:57:07.474Z,94.25
2023-03-04T07:02:13.136Z,94.54
2023-03-04T07:07:17.360Z,94.66
2023-03-04T07:12:21.095Z,94.37
2023-03-04T07:17:24.919Z,94.59
2023-03-04T07:22:28.624Z,94.87
2023-03-04T07:27:32.847Z,94.97
2023-03-04T07:32:36.575Z,95.17
2023-03-04T07:37:41.776Z,95.39
2023-03-04T07:42:50.867Z,96.11
2023-03-04T07:47:54.697Z,95.74
2023-03-04T07:52:58.541Z,95.96
2023-03-04T07:58:03.528Z,96.33
2023-03-04T08:03:07.462Z,96.50
2023-03-04T08:08:12.126Z,96.74
2023-03-04T08:13:16.323Z,96.48
2023-03-04T08:18:21.793Z,96.62
2023-03-04T08:23:28.564Z,97.09
2023-03-04T08:28:32.668Z,97.39
2023-03-04T08:33:37.996Z,97.59
2023-03-04T08:38:42.688Z,97.60
2023-03-04T08:43:47.483Z,97.88
2023-03-04T08:48:51.129Z,97.64
2023-03-04T08:53:54.921Z,97.69
2023-03-04T08:58:59.529Z,97.71
2023-03-04T09:04:03.123Z,97.63
2023-03-04T09:09:07.007Z,97.62
2023-03-04T09:14:10.783Z,97.87
2023-03-04T09:19:15.025Z,97.79
2023-03-04T09:24:18.550Z,97.64
2023-03-04T09:29:23.026Z,97.74
2023-03-04T09:34:27.965Z,97.07
2023-03-04T09:39:32.597Z,97.98
2023-03-04T09:44:43.822Z,97.67
2023-03-04T09:50:08.824Z,97.72
2023-03-04T09:55:36.938Z,98.08
2023-03-04T10:01:05.233Z,99.32
2023-03-04T10:06:13.852Z,99.24
2023-03-04T10:11:25.655Z,99.37
2023-03-04T10:16:53.922Z,99.90
2023-03-04T10:21:57.917Z,99.88
2023-03-04T10:27:07.722Z,99.90
2023-03-04T10:32:20.129Z,99.72
2023-03-04T10:37:23.978Z,99.66
2023-03-04T10:42:30.622Z,99.15
2023-03-04T10:47:35.687Z,99.17
2023-03-04T10:52:48.123Z,99.61
2023-03-04T10:57:57.796Z,99.15
2023-03-04T11:03:27.891Z,98.97
2023-03-04T11:08:33.011Z,98.75
2023-03-04T11:13:36.723Z,98.40
2023-03-04T11:18:53.878Z,98.47
2023-03-04T11:24:29.147Z,97.59
2023-03-04T11:29:40.061Z,97.42
2023-03-04T11:34:57.321Z,98.25
2023-03-04T11:40:40.337Z,98.46
2023-03-04T11:46:30.265Z,98.23
2023-03-04T11:52:03.557Z,98.84
2023-03-04T11:57:13.923Z,96.85
2023-03-04T12:02:23.160Z,96.85
2023-03-04T12:08:08.266Z,95.53
2023-03-04T12:13:50.807Z,97.19
2023-03-04T12:49:21.053Z,95.39
2023-03-04T13:00:36.332Z,96.36
2023-03-04T13:06:04.126Z,95.74
2023-03-04T13:11:26.578Z,96.28
2023-03-04T13:16:39.462Z,97.20
2023-03-04T13:21:50.093Z,98.27
2023-03-04T13:26:53.766Z,98.30
2023-03-04T13:32:00.640Z,98.09
2023-03-04T13:37:30.782Z,97.86
2023-03-04T13:42:45.213Z,98.03
2023-03-04T13:47:49.350Z,97.46
2023-03-04T13:52:54.441Z,96.72
2023-03-04T13:57:58.382Z,96.75
2023-03-04T14:03:18.585Z,96.67
2023-03-04T14:08:26.223Z,96.69
2023-03-04T14:13:30.103Z,97.47
2023-03-04T14:18:35.236Z,97.08
2023-03-04T14:23:39.264Z,96.38
2023-03-04T14:28:48.669Z,96.73
2023-03-04T14:34:00.276Z,96.67
2023-03-04T14:39:08.193Z,96.37
2023-03-04T14:44:36.329Z,95.38
2023-03-04T14:49:41.389Z,95.93
2023-03-04T14:55:01.762Z,97.68
2023-03-04T15:00:25.873Z,98.72
2023-03-04T15:05:50.022Z,98.16
2023-03-04T15:11:02.097Z,98.49
2023-03-04T15:16:07.594Z,97.67
2023-03-04T15:21:20.434Z,96.71
2023-03-04T15:26:26.044Z,96.77
2023-03-04T15:31:31.197Z,96.67
2023-03-04T15:36:35.047Z,96.44
2023-03-04T15:41:38.871Z,96.58
2023-03-04T15:46:43.147Z,96.49
2023-03-04T15:51:50.771Z,95.65
2023-03-04T15:56:59.191Z,95.73
2023-03-04T16:02:04.395Z,94.86
2023-03-04T16:07:08.324Z,94.41
2023-03-04T16:12:15.036Z,93.66
2023-03-04T16:17:20.419Z,94.24
2023-03-04T16:22:30.748Z,94.32
2023-03-04T16:27:38.535Z,94.66
2023-03-04T16:32:42.813Z,93.67
2023-03-04T16:37:48.195Z,93.44
2023-03-04T16:42:54.441Z,94.04
2023-03-04T16:47:58.817Z,94.41
2023-03-04T16:53:05.905Z,94.31
2023-03-04T16:58:10.470Z,94.24
2023-03-04T17:03:16.940Z,93.87
2023-03-04T17:08:23.139Z,94.13
2023-03-04T17:13:29.708Z,93.80
2023-03-04T17:18:36.118Z,93.73
2023-03-04T17:23:40.672Z,93.68
2023-03-04T17:28:46.152Z,93.93
2023-03-04T17:33:51.222Z,94.02
2023-03-04T17:38:57.528Z,93.78
2023-03-04T17:44:02.688Z,93.71
2023-03-04T17:49:07.367Z,93.63
2023-03-04T17:54:12.962Z,93.88
2023-03-04T17:59:20.457Z,94.56
2023-03-04T18:04:25.337Z,95.26
2023-03-04T18:09:29.957Z,95.62
2023-03-04T18:14:38.170Z,96.00
2023-03-04T18:19:43.983Z,96.15
2023-03-04T18:24:49.091Z,96.30
2023-03-04T18:29:55.355Z,96.46
2023-03-04T18:35:02.965Z,96.25
2023-03-04T18:40:09.721Z,96.69
2023-03-04T18:45:18.431Z,96.28
2023-03-04T18:50:26.247Z,96.67
2023-03-04T18:55:33.774Z,96.15
2023-03-04T19:00:41.176Z,96.74
2023-03-04T19:05:47.858Z,95.10
2023-03-04T19:10:53.408Z,92.72
2023-03-04T19:16:00.406Z,92.26
2023-03-04T19:28:20.045Z,91.56
2023-03-04T19:33:28.428Z,91.27
2023-03-04T19:38:37.321Z,91.34
2023-03-04T19:43:44.875Z,91.25
2023-03-04T19:48:55.849Z,90.82
2023-03-04T20:00:38.083Z,89.88
2023-03-04T20:05:47.592Z,89.48
2023-03-04T20:10:55.671Z,89.37
2023-03-04T20:16:04.273Z,87.41
2023-03-04T20:21:13.285Z,86.58
2023-03-04T20:26:23.173Z,86.60
2023-03-04T20:31:32.393Z,86.41
2023-03-04T20:36:39.730Z,86.17
2023-03-04T20:41:46.616Z,85.31
2023-03-04T20:46:52.838Z,84.74
2023-03-04T20:52:03.867Z,85.15
2023-03-04T20:57:11.081Z,85.01
2023-03-04T21:02:19.026Z,85.06
2023-03-04T21:07:25.337Z,84.99
2023-03-04T21:12:30.683Z,84.34
2023-03-04T21:17:35.348Z,84.90
2023-03-04T21:22:40.028Z,85.30
2023-03-04T21:27:46.553Z,85.55
2023-03-04T21:32:51.666Z,85.36
2023-03-04T21:37:57.334Z,85.66
2023-03-04T21:43:02.295Z,85.58
2023-03-04T21:48:08.902Z,86.03
2023-03-04T21:53:13.408Z,86.15
2023-03-04T21:58:18.109Z,85.95
2023-03-04T22:03:23.563Z,85.81
2023-03-04T22:08:28.246Z,84.69
2023-03-04T22:13:33.746Z,84.78
2023-03-04T22:18:41.665Z,85.00
2023-03-04T22:23:47.161Z,85.44
2023-03-04T22:28:50.966Z,85.56
2023-03-04T22:33:54.924Z,85.33
2023-03-04T22:38:58.897Z,84.46
2023-03-04T22:44:06.419Z,83.24
2023-03-04T22:49:13.510Z,83.49
2023-03-04T22:54:19.041Z,82.86
2023-03-04T22:59:23.346Z,82.11
2023-03-04T23:04:27.883Z,82.54
2023-03-04T23:09:32.321Z,82.02
2023-03-04T23:14:37.776Z,82.06
2023-03-04T23:19:41.579Z,81.95
2023-03-04T23:24:45.368Z,82.11
2023-03-04T23:29:50.294Z,82.06
2023-03-04T23:34:55.752Z,82.19
2023-03-04T23:39:59.329Z,82.02
2023-03-04T23:45:06.145Z,81.69
2023-03-04T23:50:12.502Z,82.00
2023-03-04T23:55:20.400Z,82.22
